createdAt,value
2023-12-09T00:00:01.169Z,100171.66
2023-12-09T00:01:10.981Z,100171.84
2023-12-09T00:01:52.230Z,100161.28
2023-12-09T00:02:39.005Z,100174.16
2023-12-09T00:03:15.200Z,100148.78
2023-12-09T00:04:02.148Z,100157.53
2023-12-09T00:04:36.207Z,100168.63
2023-12-09T00:05:23.009Z,100171.22
2023-12-09T00:05:57.286Z,100172.94
2023-12-09T00:06:37.096Z,100156.44
2023-12-09T00:07:18.111Z,100159.69
2023-12-09T00:07:58.013Z,100168.63
2023-12-09T00:08:38.142Z,100169.22
2023-12-09T00:09:19.039Z,100170.38
2023-12-09T00:09:59.527Z,100163.88
2023-12-09T00:10:39.978Z,100165.88
2023-12-09T00:11:21.665Z,100161.31
2023-12-09T00:12:02.051Z,100161.03
2023-12-09T00:12:42.163Z,100168.31
2023-12-09T00:13:22.043Z,100159.31
2023-12-09T00:14:05.416Z,100170.38
2023-12-09T00:14:47.003Z,100147.47
2023-12-09T00:15:27.135Z,100171.53
2023-12-09T00:16:08.003Z,100170.00
2023-12-09T00:16:50.526Z,100171.13
2023-12-09T00:17:31.016Z,100165.31
2023-12-09T00:18:11.246Z,100155.97
2023-12-09T00:18:52.154Z,100160.94
2023-12-09T00:19:32.265Z,100164.31
2023-12-09T00:20:14.020Z,100171.25
2023-12-09T00:20:54.132Z,100166.97
2023-12-09T00:21:35.038Z,100163.50
2023-12-09T00:22:15.181Z,100167.03
2023-12-09T00:22:56.996Z,100153.78
2023-12-09T00:23:47.151Z,100162.50
2023-12-09T00:24:29.061Z,100164.31
2023-12-09T00:25:09.072Z,100159.13
2023-12-09T00:25:49.980Z,100152.06
2023-12-09T00:26:31.739Z,100168.78
2023-12-09T00:27:13.039Z,100169.66
2023-12-09T00:27:53.260Z,100161.28
2023-12-09T00:28:33.995Z,100151.00
2023-12-09T00:29:14.147Z,100155.91
2023-12-09T00:29:54.082Z,100162.03
2023-12-09T00:30:36.157Z,100156.88
2023-12-09T00:31:16.964Z,100137.75
2023-12-09T00:31:59.114Z,100160.16
2023-12-09T00:32:38.996Z,100153.63
2023-12-09T00:33:19.885Z,100165.16
2023-12-09T00:34:01.148Z,100168.69
2023-12-09T00:34:41.042Z,100157.81
2023-12-09T00:35:21.986Z,100161.16
2023-12-09T00:36:02.117Z,100165.31
2023-12-09T00:36:42.950Z,100150.34
2023-12-09T00:37:23.112Z,100163.34
2023-12-09T00:38:02.950Z,100167.72
2023-12-09T00:38:43.056Z,100160.28
2023-12-09T00:39:24.049Z,100152.44
2023-12-09T00:40:04.120Z,100170.00
2023-12-09T00:40:43.958Z,100160.34
2023-12-09T00:41:37.964Z,100167.47
2023-12-09T00:42:32.034Z,100152.38
2023-12-09T00:43:25.972Z,100177.44
2023-12-09T00:44:19.946Z,100172.59
2023-12-09T00:44:59.996Z,100149.94
2023-12-09T00:45:40.094Z,100166.38
2023-12-09T00:46:19.973Z,100166.38
2023-12-09T00:47:00.066Z,100147.47
2023-12-09T00:47:40.023Z,100159.31
2023-12-09T00:48:20.168Z,100153.97
2023-12-09T00:49:00.058Z,100168.78
2023-12-09T00:49:40.167Z,100162.75
2023-12-09T00:50:19.957Z,100152.94
2023-12-09T00:51:01.177Z,100157.25
2023-12-09T00:51:40.933Z,100156.19
2023-12-09T00:52:21.045Z,100163.09
2023-12-09T00:53:00.946Z,100147.47
2023-12-09T00:53:41.101Z,100155.81
2023-12-09T00:54:21.953Z,100149.22
2023-12-09T00:55:02.141Z,100163.09
2023-12-09T00:55:41.973Z,100154.28
2023-12-09T00:56:33.514Z,100157.03
2023-12-09T00:57:15.039Z,100161.53
2023-12-09T00:57:55.024Z,100157.16
2023-12-09T00:58:35.910Z,100150.09
2023-12-09T00:59:16.041Z,100163.94
2023-12-09T00:59:56.965Z,100160.41
2023-12-09T01:00:37.109Z,100141.00
2023-12-09T01:01:17.008Z,100158.69
2023-12-09T01:01:57.034Z,100154.09
2023-12-09T01:03:00.015Z,100152.66
2023-12-09T01:03:54.079Z,100155.66
2023-12-09T01:04:47.997Z,100144.09
2023-12-09T01:05:41.945Z,100161.66
2023-12-09T01:06:36.982Z,100150.31
2023-12-09T01:07:30.946Z,100151.06
2023-12-09T01:08:24.968Z,100141.59
2023-12-09T01:09:18.997Z,100163.09
2023-12-09T01:10:13.931Z,100157.50
2023-12-09T01:11:08.910Z,100133.41
2023-12-09T01:11:55.984Z,100139.78
2023-12-09T01:12:31.462Z,100142.38
2023-12-09T01:13:18.964Z,100150.59
2023-12-09T01:13:53.070Z,100130.75
2023-12-09T01:14:39.929Z,100152.31
2023-12-09T01:15:14.158Z,100146.97
2023-12-09T01:16:01.930Z,100154.06
2023-12-09T01:16:36.025Z,100148.97
2023-12-09T01:17:16.946Z,100147.28
2023-12-09T01:17:57.296Z,100135.13
2023-12-09T01:18:36.990Z,100155.78
2023-12-09T01:19:17.089Z,100125.75
2023-12-09T01:19:58.008Z,100142.00
2023-12-09T01:20:38.420Z,100144.28
2023-12-09T01:21:19.059Z,100139.31
2023-12-09T01:22:00.209Z,100144.50
2023-12-09T01:22:39.986Z,100140.09
2023-12-09T01:23:20.002Z,100147.16
2023-12-09T01:24:00.921Z,100144.38
2023-12-09T01:24:41.010Z,100134.72
2023-12-09T01:25:22.002Z,100132.63
2023-12-09T01:26:02.051Z,100135.13
2023-12-09T01:26:42.939Z,100142.00
2023-12-09T01:27:23.110Z,100137.13
2023-12-09T01:28:03.948Z,100136.00
2023-12-09T01:28:45.371Z,100138.75
2023-12-09T01:29:26.905Z,100147.63
2023-12-09T01:30:07.074Z,100135.50
2023-12-09T01:30:46.879Z,100136.09
2023-12-09T01:31:27.032Z,100140.47
2023-12-09T01:32:07.927Z,100122.31
2023-12-09T01:32:49.097Z,100138.94
2023-12-09T01:33:29.058Z,100139.09
2023-12-09T01:34:09.089Z,100128.03
2023-12-09T01:34:49.925Z,100131.19
2023-12-09T01:35:30.065Z,100138.75
2023-12-09T01:36:10.940Z,100128.78
2023-12-09T01:36:51.031Z,100130.31
2023-12-09T01:37:31.896Z,100132.53
2023-12-09T01:38:13.014Z,100121.44
2023-12-09T01:38:53.026Z,100119.16
2023-12-09T01:39:34.130Z,100133.09
2023-12-09T01:40:14.913Z,100134.06
2023-12-09T01:41:02.021Z,100121.34
2023-12-09T01:41:44.900Z,100133.84
2023-12-09T01:42:25.332Z,100136.25
2023-12-09T01:43:05.914Z,100120.75
2023-12-09T01:43:45.996Z,100132.63
2023-12-09T01:44:26.922Z,100134.97
2023-12-09T01:45:07.079Z,100133.97
2023-12-09T01:45:46.924Z,100112.97
2023-12-09T01:46:28.033Z,100129.31
2023-12-09T01:47:08.887Z,100121.72
2023-12-09T01:47:50.206Z,100132.41
2023-12-09T01:48:31.984Z,100121.72
2023-12-09T01:49:15.171Z,100124.13
2023-12-09T01:49:57.074Z,100130.91
2023-12-09T01:50:38.155Z,100116.00
2023-12-09T01:51:18.926Z,100127.50
2023-12-09T01:52:00.042Z,100128.72
2023-12-09T01:52:40.890Z,100127.28
2023-12-09T01:53:20.964Z,100120.97
2023-12-09T01:54:01.902Z,100124.88
2023-12-09T01:54:41.979Z,100128.41
2023-12-09T01:55:22.893Z,100132.31
2023-12-09T01:56:06.100Z,100123.44
2023-12-09T01:56:46.898Z,100126.03
2023-12-09T01:57:27.007Z,100123.16
2023-12-09T01:58:06.882Z,100129.63
2023-12-09T01:58:48.049Z,100117.16
2023-12-09T01:59:28.886Z,100117.06
2023-12-09T02:00:11.036Z,100120.13
2023-12-09T02:00:51.964Z,100128.06
2023-12-09T02:01:32.955Z,100129.78
2023-12-09T02:02:13.890Z,100132.25
2023-12-09T02:02:54.056Z,100124.25
2023-12-09T02:03:34.999Z,100123.97
2023-12-09T02:04:15.096Z,100120.44
2023-12-09T02:04:56.886Z,100124.06
2023-12-09T02:05:36.966Z,100108.41
2023-12-09T02:06:17.918Z,100123.69
2023-12-09T02:06:58.030Z,100136.22
2023-12-09T02:07:37.856Z,100111.47
2023-12-09T02:08:17.970Z,100128.84
2023-12-09T02:08:58.923Z,100123.88
2023-12-09T02:09:40.678Z,100130.59
2023-12-09T02:10:28.884Z,100135.84
2023-12-09T02:11:35.893Z,100120.81
2023-12-09T02:12:46.863Z,100137.06
2023-12-09T02:14:14.917Z,100126.56
2023-12-09T02:15:22.870Z,100132.94
2023-12-09T02:16:30.879Z,100121.97
2023-12-09T02:17:29.924Z,100134.00
2023-12-09T02:18:16.152Z,100122.56
2023-12-09T02:18:56.922Z,100121.97
2023-12-09T02:19:38.218Z,100135.72
2023-12-09T02:20:18.876Z,100135.47
2023-12-09T02:20:59.015Z,100124.66
2023-12-09T02:22:07.870Z,100131.13
2023-12-09T02:22:47.877Z,100132.09
2023-12-09T02:23:21.949Z,100129.63
2023-12-09T02:24:08.888Z,100118.72
2023-12-09T02:24:43.020Z,100123.69
2023-12-09T02:25:29.863Z,100130.19
2023-12-09T02:26:12.961Z,100128.06
2023-12-09T02:27:01.890Z,100127.78
2023-12-09T02:28:00.870Z,100114.03
2023-12-09T02:29:00.850Z,100109.31
2023-12-09T02:30:13.874Z,100114.34
2023-12-09T02:31:32.887Z,100122.47
2023-12-09T02:32:28.999Z,100103.06
2023-12-09T02:33:17.107Z,100120.16
2023-12-09T02:33:52.103Z,100132.56
2023-12-09T02:34:39.910Z,100118.44
2023-12-09T02:35:14.963Z,100123.41
2023-12-09T02:36:02.875Z,100122.47
2023-12-09T02:36:38.043Z,100121.44
2023-12-09T02:37:27.871Z,100109.97
2023-12-09T02:38:10.949Z,100121.72
2023-12-09T02:38:51.925Z,100119.25
2023-12-09T02:39:33.056Z,100129.50
2023-12-09T02:40:17.861Z,100111.19
2023-12-09T02:40:58.935Z,100116.53
2023-12-09T02:41:39.825Z,100115.34
2023-12-09T02:42:22.013Z,100117.00
2023-12-09T02:43:01.849Z,100123.53
2023-12-09T02:43:43.013Z,100125.13
2023-12-09T02:44:22.923Z,100116.16
2023-12-09T02:45:04.181Z,100118.19
2023-12-09T02:45:44.830Z,100125.88
2023-12-09T02:46:25.921Z,100131.91
2023-12-09T02:47:05.823Z,100130.97
2023-12-09T02:47:45.926Z,100125.88
2023-12-09T02:48:25.932Z,100118.19
2023-12-09T02:49:10.049Z,100117.38
2023-12-09T02:49:50.976Z,100115.41
2023-12-09T02:50:31.963Z,100133.34
2023-12-09T02:51:12.853Z,100117.31
2023-12-09T02:51:52.960Z,100129.22
2023-12-09T02:52:32.843Z,100128.75
2023-12-09T02:53:12.933Z,100131.44
2023-12-09T02:53:52.867Z,100123.59
2023-12-09T02:54:33.945Z,100122.34
2023-12-09T02:55:15.839Z,100128.53
2023-12-09T02:55:55.991Z,100114.94
2023-12-09T02:56:35.854Z,100124.75
2023-12-09T02:57:15.983Z,100126.25
2023-12-09T02:57:56.821Z,100131.06
2023-12-09T02:58:37.953Z,100126.78
2023-12-09T02:59:17.816Z,100114.53
2023-12-09T02:59:57.956Z,100107.25
2023-12-09T03:00:37.879Z,100126.78
2023-12-09T03:01:17.963Z,100129.50
2023-12-09T03:01:57.831Z,100136.56
2023-12-09T03:03:01.003Z,100133.75
2023-12-09T03:03:48.907Z,100138.13
2023-12-09T03:04:22.933Z,100130.09
2023-12-09T03:05:09.856Z,100128.03
2023-12-09T03:05:50.943Z,100128.13
2023-12-09T03:06:44.802Z,100134.13
2023-12-09T03:07:38.804Z,100114.66
2023-12-09T03:08:32.775Z,100123.53
2023-12-09T03:09:26.847Z,100125.22
2023-12-09T03:10:21.823Z,100117.97
2023-12-09T03:11:08.861Z,100113.69
2023-12-09T03:11:42.913Z,100114.53
2023-12-09T03:12:30.018Z,100122.28
2023-12-09T03:13:03.954Z,100123.81
2023-12-09T03:13:50.798Z,100120.38
2023-12-09T03:14:24.975Z,100120.75
2023-12-09T03:15:12.878Z,100117.47
2023-12-09T03:15:46.934Z,100121.88
2023-12-09T03:16:33.832Z,100120.63
2023-12-09T03:17:07.904Z,100109.44
2023-12-09T03:17:54.900Z,100123.56
2023-12-09T03:18:29.021Z,100117.72
2023-12-09T03:19:15.877Z,100113.13
2023-12-09T03:19:49.987Z,100117.25
2023-12-09T03:20:36.778Z,100130.59
2023-12-09T03:21:10.967Z,100124.66
2023-12-09T03:21:57.822Z,100121.84
2023-12-09T03:22:31.927Z,100116.75
2023-12-09T03:23:18.835Z,100115.44
2023-12-09T03:23:52.944Z,100123.00
2023-12-09T03:24:39.801Z,100120.91
2023-12-09T03:25:13.971Z,100105.63
2023-12-09T03:26:00.800Z,100128.34
2023-12-09T03:26:34.879Z,100120.25
2023-12-09T03:27:21.817Z,100116.72
2023-12-09T03:27:56.634Z,100124.19
2023-12-09T03:28:44.804Z,100126.09
2023-12-09T03:29:19.044Z,100109.31
2023-12-09T03:30:05.841Z,100121.59
2023-12-09T03:30:40.022Z,100121.50
2023-12-09T03:31:27.779Z,100122.19
2023-12-09T03:32:01.903Z,100119.31
2023-12-09T03:32:41.815Z,100117.88
2023-12-09T03:33:22.025Z,100126.56
2023-12-09T03:34:02.867Z,100130.09
2023-12-09T03:34:42.886Z,100103.53
2023-12-09T03:35:23.803Z,100124.38
2023-12-09T03:36:04.049Z,100115.19
2023-12-09T03:36:43.770Z,100116.75
2023-12-09T03:37:23.902Z,100121.06
2023-12-09T03:38:04.786Z,100110.22
2023-12-09T03:38:44.869Z,100129.16
2023-12-09T03:39:25.922Z,100110.75
2023-12-09T03:40:05.909Z,100110.56
2023-12-09T03:40:45.756Z,100103.88
2023-12-09T03:41:26.352Z,100113.97
2023-12-09T03:42:06.946Z,100107.78
2023-12-09T03:42:46.894Z,100101.56
2023-12-09T03:43:27.841Z,100095.66
2023-12-09T03:44:08.883Z,100103.88
2023-12-09T03:44:48.797Z,100113.53
2023-12-09T03:45:28.923Z,100101.19
2023-12-09T03:46:09.789Z,100096.50
2023-12-09T03:46:49.852Z,100114.88
2023-12-09T03:47:30.813Z,100123.28
2023-12-09T03:48:11.972Z,100114.28
2023-12-09T03:48:51.966Z,100097.69
2023-12-09T03:49:31.966Z,100118.28
2023-12-09T03:50:12.768Z,100121.56
2023-12-09T03:50:52.989Z,100099.75
2023-12-09T03:51:33.831Z,100114.50
2023-12-09T03:52:16.548Z,100113.84
2023-12-09T03:52:57.771Z,100115.03
2023-12-09T03:53:37.844Z,100116.38
2023-12-09T03:54:17.800Z,100120.69
2023-12-09T03:54:57.867Z,100106.91
2023-12-09T03:55:38.788Z,100109.09
2023-12-09T03:56:18.932Z,100121.44
2023-12-09T03:56:58.817Z,100116.66
2023-12-09T03:57:39.006Z,100113.31
2023-12-09T03:58:19.754Z,100096.47
2023-12-09T03:59:00.330Z,100112.75
2023-12-09T03:59:41.789Z,100107.78
2023-12-09T04:00:23.731Z,100110.66
2023-12-09T04:01:03.863Z,100113.44
2023-12-09T04:01:43.856Z,100109.38
2023-12-09T04:02:25.952Z,100108.41
2023-12-09T04:03:07.160Z,100113.16
2023-12-09T04:03:47.841Z,100110.59
2023-12-09T04:04:27.928Z,100114.78
2023-12-09T04:05:07.802Z,100112.38
2023-12-09T04:05:48.946Z,100108.56
2023-12-09T04:06:28.813Z,100108.38
2023-12-09T04:07:08.922Z,100108.25
2023-12-09T04:07:49.767Z,100110.00
2023-12-09T04:08:29.852Z,100101.31
2023-12-09T04:09:10.775Z,100108.78
2023-12-09T04:09:50.928Z,100105.31
2023-12-09T04:10:30.777Z,100101.69
2023-12-09T04:11:11.852Z,100104.31
2023-12-09T04:11:52.757Z,100099.72
2023-12-09T04:12:32.875Z,100108.84
2023-12-09T04:13:13.719Z,100106.28
2023-12-09T04:13:53.819Z,100100.66
2023-12-09T04:14:33.746Z,100101.41
2023-12-09T04:15:15.969Z,100106.31
2023-12-09T04:15:56.795Z,100101.16
2023-12-09T04:16:36.879Z,100102.50
2023-12-09T04:17:17.729Z,100091.59
2023-12-09T04:17:58.039Z,100110.34
2023-12-09T04:18:38.790Z,100095.44
2023-12-09T04:19:18.974Z,100110.34
2023-12-09T04:19:59.804Z,100111.94
2023-12-09T04:20:39.877Z,100112.81
2023-12-09T04:21:19.808Z,100111.94
2023-12-09T04:21:59.850Z,100110.81
2023-12-09T04:22:39.774Z,100103.66
2023-12-09T04:23:22.436Z,100107.00
2023-12-09T04:24:03.731Z,100105.19
2023-12-09T04:24:44.140Z,100113.97
2023-12-09T04:25:24.728Z,100090.56
2023-12-09T04:26:05.917Z,100101.56
2023-12-09T04:26:46.765Z,100110.34
2023-12-09T04:27:26.884Z,100101.56
2023-12-09T04:28:07.715Z,100111.28
2023-12-09T04:28:48.194Z,100112.41
2023-12-09T04:29:28.739Z,100111.13
2023-12-09T04:30:10.451Z,100106.91
2023-12-09T04:30:50.728Z,100100.78
2023-12-09T04:31:30.857Z,100109.38
2023-12-09T04:32:11.718Z,100113.31
2023-12-09T04:32:51.880Z,100106.44
2023-12-09T04:33:32.748Z,100106.03
2023-12-09T04:34:12.908Z,100112.25
2023-12-09T04:34:53.737Z,100110.16
2023-12-09T04:35:33.842Z,100109.88
2023-12-09T04:36:14.815Z,100103.06
2023-12-09T04:36:54.868Z,100090.94
2023-12-09T04:37:34.755Z,100105.19
2023-12-09T04:38:15.101Z,100096.50
2023-12-09T04:38:54.803Z,100108.25
2023-12-09T04:39:34.843Z,100093.53
2023-12-09T04:40:18.920Z,100105.56
2023-12-09T04:40:59.865Z,100107.38
2023-12-09T04:41:39.722Z,100107.09
2023-12-09T04:42:19.851Z,100102.72
2023-12-09T04:42:59.760Z,100113.19
2023-12-09T04:43:39.991Z,100100.78
2023-12-09T04:44:20.700Z,100088.78
2023-12-09T04:45:00.829Z,100109.00
2023-12-09T04:45:40.716Z,100103.09
2023-12-09T04:46:20.836Z,100101.66
2023-12-09T04:47:00.717Z,100107.69
2023-12-09T04:47:41.959Z,100106.63
2023-12-09T04:48:22.922Z,100100.09
2023-12-09T04:49:04.101Z,100097.94
2023-12-09T04:49:45.785Z,100094.88
2023-12-09T04:50:25.910Z,100091.34
2023-12-09T04:51:05.722Z,100098.31
2023-12-09T04:51:45.799Z,100098.97
2023-12-09T04:52:26.886Z,100081.78
2023-12-09T04:53:08.048Z,100100.63
2023-12-09T04:53:47.776Z,100097.16
2023-12-09T04:54:27.816Z,100098.88
2023-12-09T04:55:07.699Z,100098.78
2023-12-09T04:55:48.824Z,100075.97
2023-12-09T04:56:29.696Z,100102.25
2023-12-09T04:57:09.871Z,100081.13
2023-12-09T04:57:49.687Z,100097.66
2023-12-09T04:58:29.780Z,100096.78
2023-12-09T04:59:10.719Z,100096.69
2023-12-09T04:59:50.900Z,100098.50
2023-12-09T05:00:31.712Z,100096.97
2023-12-09T05:01:11.829Z,100103.44
2023-12-09T05:01:52.695Z,100096.97
2023-12-09T05:03:04.842Z,100096.22
2023-12-09T05:03:44.793Z,100100.41
2023-12-09T05:04:25.765Z,100099.75
2023-12-09T05:04:59.776Z,100101.47
2023-12-09T05:05:46.724Z,100095.13
2023-12-09T05:06:21.517Z,100086.56
2023-12-09T05:07:08.690Z,100099.91
2023-12-09T05:07:43.392Z,100104.78
2023-12-09T05:08:30.678Z,100088.38
2023-12-09T05:09:05.209Z,100097.25
2023-12-09T05:09:45.747Z,100104.78
2023-12-09T05:10:25.791Z,100104.50
2023-12-09T05:11:05.716Z,100107.06
2023-12-09T05:11:45.749Z,100090.09
2023-12-09T05:12:26.931Z,100100.09
2023-12-09T05:13:07.895Z,100095.31
2023-12-09T05:13:47.689Z,100102.31
2023-12-09T05:14:27.822Z,100093.72
2023-12-09T05:15:07.715Z,100093.91
2023-12-09T05:15:47.880Z,100103.47
2023-12-09T05:16:28.671Z,100104.97
2023-12-09T05:17:08.820Z,100107.66
2023-12-09T05:17:48.711Z,100090.88
2023-12-09T05:18:28.961Z,100099.56
2023-12-09T05:19:08.835Z,100105.19
2023-12-09T05:19:48.837Z,100105.94
2023-12-09T05:20:29.680Z,100106.53
2023-12-09T05:21:11.775Z,100103.66
2023-12-09T05:21:51.682Z,100108.13
2023-12-09T05:22:32.763Z,100103.66
2023-12-09T05:23:13.659Z,100104.03
2023-12-09T05:23:53.757Z,100111.28
2023-12-09T05:24:34.717Z,100101.28
2023-12-09T05:25:15.940Z,100105.47
2023-12-09T05:25:57.715Z,100102.88
2023-12-09T05:26:37.748Z,100091.25
2023-12-09T05:27:17.734Z,100107.66
2023-12-09T05:27:57.773Z,100089.59
2023-12-09T05:28:38.671Z,100092.75
2023-12-09T05:29:18.770Z,100095.81
2023-12-09T05:30:00.753Z,100093.81
2023-12-09T05:30:40.767Z,100097.94
2023-12-09T05:31:20.674Z,100103.84
2023-12-09T05:32:00.734Z,100107.28
2023-12-09T05:32:41.707Z,100112.63
2023-12-09T05:33:21.862Z,100116.25
2023-12-09T05:34:01.768Z,100109.53
2023-12-09T05:34:41.885Z,100105.38
2023-12-09T05:35:22.647Z,100109.00
2023-12-09T05:36:02.823Z,100113.00
2023-12-09T05:36:45.664Z,100102.88
2023-12-09T05:37:25.791Z,100117.56
2023-12-09T05:38:05.733Z,100111.88
2023-12-09T05:38:45.804Z,100113.22
2023-12-09T05:39:26.741Z,100109.19
2023-12-09T05:40:07.951Z,100105.38
2023-12-09T05:40:48.656Z,100119.53
2023-12-09T05:41:28.802Z,100116.75
2023-12-09T05:42:09.707Z,100100.97
2023-12-09T05:42:49.765Z,100104.59
2023-12-09T05:43:29.638Z,100117.38
2023-12-09T05:44:09.736Z,100110.34
2023-12-09T05:44:50.626Z,100120.44
2023-12-09T05:45:30.873Z,100117.94
2023-12-09T05:46:11.644Z,100115.25
2023-12-09T05:46:51.782Z,100115.06
2023-12-09T05:47:32.722Z,100108.03
2023-12-09T05:48:12.908Z,100106.97
2023-12-09T05:48:55.767Z,100104.56
2023-12-09T05:49:35.845Z,100105.94
2023-12-09T05:50:17.654Z,100093.63
2023-12-09T05:50:57.768Z,100103.28
2023-12-09T05:51:37.803Z,100115.41
2023-12-09T05:52:17.760Z,100114.13
2023-12-09T05:53:00.643Z,100106.38
2023-12-09T05:53:42.849Z,100114.53
2023-12-09T05:54:22.666Z,100111.66
2023-12-09T05:55:02.800Z,100102.31
2023-12-09T05:55:42.653Z,100094.09
2023-12-09T05:56:22.741Z,100104.78
2023-12-09T05:57:03.622Z,100097.13
2023-12-09T05:57:44.405Z,100107.84
2023-12-09T05:58:25.711Z,100106.81
2023-12-09T05:59:05.791Z,100098.69
2023-12-09T05:59:45.624Z,100087.00
2023-12-09T06:00:25.760Z,100110.34
2023-12-09T06:01:07.645Z,100106.59
2023-12-09T06:01:47.716Z,100113.59
2023-12-09T06:02:27.980Z,100112.72
2023-12-09T06:03:09.292Z,100117.59
2023-12-09T06:03:49.632Z,100108.44
2023-12-09T06:04:29.813Z,100110.16
2023-12-09T06:05:10.631Z,100099.56
2023-12-09T06:05:50.797Z,100097.66
2023-12-09T06:06:30.769Z,100100.78
2023-12-09T06:07:10.989Z,100099.81
2023-12-09T06:07:51.628Z,100098.19
2023-12-09T06:08:32.747Z,100110.59
2023-12-09T06:09:14.666Z,100105.63
2023-12-09T06:09:54.731Z,100112.22
2023-12-09T06:10:35.617Z,100116.84
2023-12-09T06:11:15.766Z,100110.13
2023-12-09T06:11:55.684Z,100108.69
2023-12-09T06:12:36.138Z,100094.16
2023-12-09T06:13:17.620Z,100092.53
2023-12-09T06:13:57.794Z,100090.47
2023-12-09T06:14:37.620Z,100114.03
2023-12-09T06:15:17.766Z,100099.06
2023-12-09T06:15:57.584Z,100101.41
2023-12-09T06:16:37.688Z,100115.84
2023-12-09T06:17:18.607Z,100124.25
2023-12-09T06:17:58.956Z,100106.13
2023-12-09T06:18:38.684Z,100099.81
2023-12-09T06:19:18.948Z,100111.03
2023-12-09T06:19:58.665Z,100110.00
2023-12-09T06:20:38.704Z,100106.00
2023-12-09T06:21:32.636Z,100121.94
2023-12-09T06:22:12.719Z,100108.31
2023-12-09T06:22:52.605Z,100109.91
2023-12-09T06:23:32.943Z,100121.47
2023-12-09T06:24:14.775Z,100111.53
2023-12-09T06:24:57.343Z,100102.94
2023-12-09T06:25:38.640Z,100113.06
2023-12-09T06:26:18.800Z,100117.66
2023-12-09T06:26:58.657Z,100110.59
2023-12-09T06:27:38.823Z,100105.31
2023-12-09T06:28:18.589Z,100104.38
2023-12-09T06:28:58.726Z,100122.22
2023-12-09T06:29:39.621Z,100117.94
2023-12-09T06:30:20.884Z,100117.72
2023-12-09T06:31:01.643Z,100098.47
2023-12-09T06:31:41.713Z,100103.25
2023-12-09T06:32:21.612Z,100114.78
2023-12-09T06:33:02.017Z,100116.06
2023-12-09T06:33:43.820Z,100107.03
2023-12-09T06:34:24.805Z,100107.56
2023-12-09T06:35:04.608Z,100107.84
2023-12-09T06:35:44.720Z,100098.78
2023-12-09T06:36:24.680Z,100087.41
2023-12-09T06:37:04.727Z,100111.28
2023-12-09T06:37:45.693Z,100109.97
2023-12-09T06:38:26.914Z,100100.78
2023-12-09T06:39:07.642Z,100107.66
2023-12-09T06:39:47.728Z,100104.41
2023-12-09T06:40:30.584Z,100089.66
2023-12-09T06:41:10.773Z,100094.25
2023-12-09T06:41:51.615Z,100094.75
2023-12-09T06:42:32.004Z,100113.19
2023-12-09T06:43:12.563Z,100098.50
2023-12-09T06:43:52.679Z,100097.44
2023-12-09T06:44:33.584Z,100097.41
2023-12-09T06:45:14.739Z,100090.47
2023-12-09T06:45:55.594Z,100096.50
2023-12-09T06:46:35.684Z,100107.47
2023-12-09T06:47:20.589Z,100104.72
2023-12-09T06:48:00.868Z,100103.06
2023-12-09T06:48:40.651Z,100082.34
2023-12-09T06:49:20.806Z,100107.06
2023-12-09T06:50:01.564Z,100100.50
2023-12-09T06:50:41.751Z,100110.25
2023-12-09T06:51:24.681Z,100106.22
2023-12-09T06:52:04.798Z,100105.56
2023-12-09T06:52:45.581Z,100104.72
2023-12-09T06:53:25.699Z,100111.19
2023-12-09T06:54:07.595Z,100104.97
2023-12-09T06:54:47.787Z,100100.22
2023-12-09T06:55:27.593Z,100108.03
2023-12-09T06:56:09.979Z,100110.72
2023-12-09T06:56:51.570Z,100108.63
2023-12-09T06:57:32.822Z,100110.53
2023-12-09T06:58:13.587Z,100114.25
2023-12-09T06:58:53.935Z,100113.97
2023-12-09T06:59:34.564Z,100110.34
2023-12-09T07:00:15.888Z,100109.19
2023-12-09T07:00:56.629Z,100120.84
2023-12-09T07:01:36.713Z,100119.41
2023-12-09T07:02:17.608Z,100097.16
2023-12-09T07:02:59.917Z,100112.94
2023-12-09T07:03:40.737Z,100109.75
2023-12-09T07:04:20.731Z,100115.31
2023-12-09T07:05:01.593Z,100104.81
2023-12-09T07:05:41.743Z,100107.38
2023-12-09T07:06:30.600Z,100116.06
2023-12-09T07:07:18.281Z,100115.25
2023-12-09T07:08:01.560Z,100110.09
2023-12-09T07:08:48.591Z,100122.72
2023-12-09T07:09:42.576Z,100125.31
2023-12-09T07:10:36.560Z,100114.03
2023-12-09T07:11:31.562Z,100125.25
2023-12-09T07:12:25.884Z,100119.88
2023-12-09T07:13:20.555Z,100109.56
2023-12-09T07:14:07.572Z,100098.78
2023-12-09T07:14:41.664Z,100116.63
2023-12-09T07:15:28.573Z,100120.06
2023-12-09T07:16:03.683Z,100116.09
2023-12-09T07:16:50.554Z,100120.47
2023-12-09T07:17:24.773Z,100114.91
2023-12-09T07:18:12.791Z,100095.66
2023-12-09T07:19:01.236Z,100109.78
2023-12-09T07:19:41.779Z,100117.31
2023-12-09T07:20:21.720Z,100086.66
2023-12-09T07:21:02.552Z,100087.06
2023-12-09T07:21:42.666Z,100107.28
2023-12-09T07:22:22.531Z,100111.97
2023-12-09T07:23:02.669Z,100096.59
2023-12-09T07:23:43.567Z,100116.25
2023-12-09T07:24:23.771Z,100112.63
2023-12-09T07:25:04.577Z,100117.97
2023-12-09T07:25:44.664Z,100104.72
2023-12-09T07:26:26.570Z,100106.53
2023-12-09T07:27:06.651Z,100110.34
2023-12-09T07:27:46.509Z,100119.72
2023-12-09T07:28:26.688Z,100121.03
2023-12-09T07:29:11.514Z,100117.88
2023-12-09T07:29:51.643Z,100121.78
2023-12-09T07:30:31.543Z,100119.91
2023-12-09T07:31:11.625Z,100118.16
2023-12-09T07:31:51.529Z,100123.88
2023-12-09T07:32:31.890Z,100119.97
2023-12-09T07:33:13.620Z,100110.22
2023-12-09T07:33:54.364Z,100127.13
2023-12-09T07:34:34.612Z,100127.69
2023-12-09T07:35:18.168Z,100117.88
2023-12-09T07:35:58.565Z,100121.41
2023-12-09T07:36:38.700Z,100122.94
2023-12-09T07:37:22.517Z,100109.19
2023-12-09T07:38:02.648Z,100112.81
2023-12-09T07:38:42.538Z,100123.31
2023-12-09T07:39:23.111Z,100110.72
2023-12-09T07:40:03.533Z,100115.25
2023-12-09T07:40:43.611Z,100116.63
2023-12-09T07:41:24.543Z,100112.81
2023-12-09T07:42:18.629Z,100107.06
2023-12-09T07:43:12.520Z,100108.41
2023-12-09T07:44:06.569Z,100111.13
2023-12-09T07:45:00.639Z,100121.66
2023-12-09T07:45:54.515Z,100116.38
2023-12-09T07:46:41.524Z,100124.81
2023-12-09T07:47:15.722Z,100117.78
2023-12-09T07:48:02.647Z,100125.69
2023-12-09T07:48:36.743Z,100120.06
2023-12-09T07:49:23.619Z,100112.78
2023-12-09T07:49:57.678Z,100109.16
2023-12-09T07:50:44.534Z,100128.97
2023-12-09T07:51:18.683Z,100114.41
2023-12-09T07:52:05.531Z,100114.03
2023-12-09T07:52:39.595Z,100108.19
2023-12-09T07:53:26.508Z,100113.56
2023-12-09T07:54:00.632Z,100108.91
2023-12-09T07:54:47.528Z,100111.09
2023-12-09T07:55:21.585Z,100118.84
2023-12-09T07:56:08.573Z,100116.88
2023-12-09T07:56:42.604Z,100120.06
2023-12-09T07:57:29.551Z,100107.78
2023-12-09T07:58:03.630Z,100112.75
2023-12-09T07:58:51.504Z,100109.81